Time;durP1;ratioP1;P1;durP2;ratioP2;P2;SDS_P1;SDS_P2;PMS_P1;PMS_P2;Temp;Humidity;BMP_temperature;BMP_pressure;BME280_temperature;BME280_humidity;BME280_pressure;Samples;Min_cycle;Max_cycle;Signal;HPM_P1;HPM_P2
2023/01/10 00:00:17;;;;;;;0.93;0.75;;;5.40;14.90;;;;;;7385313;19;20014;-81
2023/01/10 00:02:47;;;;;;;1.35;0.90;;;5.40;15.20;;;;;;7386498;19;20523;-80
2023/01/10 00:05:20;;;;;;;1.63;0.75;;;5.40;15.70;;;;;;7373538;19;20038;-79
2023/01/10 00:07:50;;;;;;;1.52;1.10;;;5.40;15.50;;;;;;7388537;19;20006;-80
2023/01/10 00:10:20;;;;;;;3.05;1.30;;;5.40;15.60;;;;;;7384132;19;20466;-80
2023/01/10 00:15:34;;;;;;;2.75;1.52;;;5.40;16.00;;;;;;7373409;19;20081;-80
2023/01/10 00:18:04;;;;;;;2.55;1.35;;;5.40;16.60;;;;;;7387129;19;20014;-79
2023/01/10 00:20:36;;;;;;;2.17;1.35;;;5.40;16.90;;;;;;7339008;19;20090;-79
2023/01/10 00:23:06;;;;;;;4.10;1.67;;;5.40;18.10;;;;;;7381322;19;20017;-79
2023/01/10 00:25:36;;;;;;;5.30;1.95;;;5.40;18.50;;;;;;7346312;19;20011;-79
2023/01/10 00:28:14;;;;;;;1.88;1.70;;;5.40;19.20;;;;;;7358847;19;20445;-78
2023/01/10 00:30:50;;;;;;;3.22;1.92;;;5.40;19.90;;;;;;7357936;19;20911;-79
2023/01/10 00:33:21;;;;;;;3.47;2.28;;;5.40;19.80;;;;;;7379492;19;20549;-79
2023/01/10 00:35:53;;;;;;;3.05;2.00;;;5.40;20.20;;;;;;7343382;19;20027;-79
2023/01/10 00:38:23;;;;;;;5.90;2.45;;;5.30;20.80;;;;;;7358614;19;20563;-79
2023/01/10 00:40:54;;;;;;;4.15;2.45;;;5.30;20.70;;;;;;7358045;19;20011;-79
2023/01/10 00:46:07;;;;;;;2.42;2.10;;;5.30;19.80;;;;;;7344771;19;20017;-80
2023/01/10 00:48:36;;;;;;;4.03;2.08;;;5.40;20.80;;;;;;7358008;19;20453;-80
2023/01/10 00:51:12;;;;;;;3.97;2.20;;;5.30;20.40;;;;;;7379241;19;20078;-79
2023/01/10 00:53:43;;;;;;;5.15;2.33;;;5.30;21.10;;;;;;7357420;19;20029;-79
2023/01/10 00:56:13;;;;;;;2.20;1.85;;;5.30;22.00;;;;;;7341524;19;20018;-79
2023/01/10 00:58:43;;;;;;;2.70;2.03;;;5.30;23.00;;;;;;7357195;19;20038;-78
2023/01/10 01:01:15;;;;;;;3.42;2.20;;;5.30;23.30;;;;;;7356647;19;20033;-79
2023/01/10 01:03:47;;;;;;;2.22;2.00;;;5.30;24.40;;;;;;7354132;19;20030;-80
2023/01/10 01:06:21;;;;;;;3.00;2.40;;;5.20;25.10;;;;;;7365829;19;20086;-80
2023/01/10 01:08:51;;;;;;;4.15;2.65;;;5.20;25.80;;;;;;7357583;19;20416;-79
2023/01/10 01:11:23;;;;;;;6.03;2.83;;;5.20;26.60;;;;;;7355942;19;20010;-81
2023/01/10 01:13:54;;;;;;;5.10;2.75;;;5.20;26.50;;;;;;7355984;19;20014;-79
2023/01/10 01:16:24;;;;;;;5.57;2.70;;;5.20;26.50;;;;;;7349364;19;20025;-80
2023/01/10 01:18:53;;;;;;;4.55;2.45;;;5.20;26.50;;;;;;7355236;19;20025;-80
2023/01/10 01:21:27;;;;;;;4.05;2.70;;;5.20;26.50;;;;;;7381670;19;20018;-80
2023/01/10 01:23:58;;;;;;;2.92;2.60;;;5.20;26.60;;;;;;7378465;19;20413;-80
2023/01/10 01:26:28;;;;;;;4.05;2.75;;;5.10;26.50;;;;;;7378171;19;20084;-80
2023/01/10 01:28:58;;;;;;;3.47;2.90;;;5.20;26.50;;;;;;7385577;19;20015;-79
2023/01/10 01:31:28;;;;;;;3.92;2.72;;;5.20;26.50;;;;;;7384108;19;20031;-79
2023/01/10 01:33:58;;;;;;;3.65;2.10;;;5.20;26.10;;;;;;7378128;19;20502;-80
2023/01/10 01:36:30;;;;;;;3.30;2.38;;;5.30;24.90;;;;;;7376358;19;20375;-79
2023/01/10 01:39:00;;;;;;;2.72;1.90;;;5.30;24.10;;;;;;7384604;19;20078;-79
2023/01/10 01:44:17;;;;;;;3.22;1.88;;;5.40;21.30;;;;;;7378558;19;20014;-79
2023/01/10 01:46:51;;;;;;;2.40;1.70;;;5.40;20.20;;;;;;7378119;19;20543;-79
2023/01/10 01:49:25;;;;;;;2.45;1.83;;;5.40;19.80;;;;;;7381763;19;20022;-79
2023/01/10 01:52:01;;;;;;;;;;;5.40;19.90;;;;;;7384235;19;20015;-79
2023/01/10 01:54:33;;;;;;;3.88;1.90;;;5.40;19.90;;;;;;7376751;19;19923;-79
2023/01/10 01:57:06;;;;;;;2.25;1.50;;;5.40;19.40;;;;;;7376642;19;20014;-80
2023/01/10 01:59:40;;;;;;;1.98;1.48;;;5.40;19.20;;;;;;7382925;19;20015;-78
2023/01/10 02:02:14;;;;;;;1.48;1.35;;;5.40;18.70;;;;;;7381846;19;20567;-80
2023/01/10 02:04:50;;;;;;;1.95;1.40;;;5.40;18.50;;;;;;7376197;19;20356;-79
2023/01/10 02:07:24;;;;;;;1.63;1.20;;;5.30;19.30;;;;;;7375884;19;20018;-79
2023/01/10 02:09:57;;;;;;;2.13;1.50;;;5.30;19.80;;;;;;7380502;19;20015;-79
2023/01/10 02:12:29;;;;;;;3.03;1.33;;;5.30;20.60;;;;;;7382978;19;20031;-79
2023/01/10 02:15:00;;;;;;;2.50;1.35;;;5.20;21.60;;;;;;7381410;19;20447;-79
2023/01/10 02:17:30;;;;;;;1.95;1.45;;;5.20;21.60;;;;;;7381588;19;20019;-79
2023/01/10 02:20:02;;;;;;;2.38;1.25;;;5.20;21.30;;;;;;7387496;19;20589;-78
2023/01/10 02:23:05;;;;;;;2.45;1.40;;;5.20;22.20;;;;;;7385143;19;20002;-79
2023/01/10 02:26:02;;;;;;;2.95;1.50;;;5.20;22.70;;;;;;7375911;19;20119;-78
2023/01/10 02:28:56;;;;;;;2.35;1.45;;;5.10;23.20;;;;;;7389844;19;20031;-79
2023/01/10 02:31:42;;;;;;;2.40;2.03;;;5.10;24.20;;;;;;7386641;19;20022;-79
2023/01/10 02:34:21;;;;;;;3.67;1.77;;;5.10;24.20;;;;;;7381402;19;20361;-79
2023/01/10 02:37:01;;;;;;;2.33;1.70;;;5.10;24.00;;;;;;7383924;19;20018;-79
2023/01/10 02:39:38;;;;;;;3.78;1.80;;;5.00;24.00;;;;;;7387644;19;20014;-80
2023/01/10 02:42:10;;;;;;;3.08;2.03;;;5.00;23.90;;;;;;7387627;19;20021;-78
2023/01/10 02:44:46;;;;;;;2.35;1.63;;;5.00;24.10;;;;;;7384289;19;20168;-78
2023/01/10 02:47:16;;;;;;;3.58;1.73;;;5.00;24.10;;;;;;7382910;19;20661;-80
2023/01/10 02:49:50;;;;;;;2.50;1.92;;;5.00;24.70;;;;;;7385031;19;20010;-79
2023/01/10 02:52:24;;;;;;;4.45;2.08;;;5.00;25.30;;;;;;7387581;19;20011;-79
2023/01/10 02:55:00;;;;;;;3.00;1.73;;;5.00;25.10;;;;;;7383597;19;20010;-80
2023/01/10 02:57:44;;;;;;;4.35;2.10;;;5.00;24.70;;;;;;7384487;19;20010;-80
2023/01/10 03:00:35;;;;;;;1.55;1.40;;;5.00;23.30;;;;;;7382895;19;20018;-80
2023/01/10 03:03:15;;;;;;;5.13;1.90;;;4.90;22.80;;;;;;7384140;19;20011;-79
2023/01/10 03:05:56;;;;;;;5.03;1.58;;;4.90;23.00;;;;;;7376852;19;20033;-79
2023/01/10 03:08:33;;;;;;;4.53;1.77;;;4.90;21.30;;;;;;7388037;19;20043;-80
2023/01/10 03:11:04;;;;;;;3.10;1.90;;;4.90;21.60;;;;;;7387831;19;20088;-80
2023/01/10 03:13:41;;;;;;;3.38;1.55;;;4.90;22.20;;;;;;7385887;19;20081;-80
2023/01/10 03:16:17;;;;;;;4.85;2.38;;;4.80;22.60;;;;;;7376429;19;20026;-81
2023/01/10 03:18:51;;;;;;;7.95;2.35;;;4.90;22.10;;;;;;7388832;19;20044;-80
2023/01/10 03:21:25;;;;;;;4.07;1.90;;;4.90;22.40;;;;;;7386100;19;20010;-80
2023/01/10 03:24:00;;;;;;;3.03;1.60;;;4.80;22.00;;;;;;7384483;19;20478;-79
2023/01/10 03:26:37;;;;;;;3.47;1.77;;;4.80;21.90;;;;;;7382679;19;20007;-81
2023/01/10 03:29:11;;;;;;;5.90;2.17;;;4.90;22.70;;;;;;7387284;19;20021;-81
2023/01/10 03:31:45;;;;;;;6.28;2.20;;;4.80;23.60;;;;;;7385801;19;20031;-80
2023/01/10 03:34:16;;;;;;;3.92;2.30;;;4.80;24.80;;;;;;7377636;19;20644;-80
2023/01/10 03:36:54;;;;;;;5.50;2.30;;;4.80;23.90;;;;;;7382373;19;20070;-80
2023/01/10 03:39:35;;;;;;;5.68;2.33;;;4.90;24.50;;;;;;7385107;19;20011;-80
2023/01/10 03:42:12;;;;;;;7.43;2.30;;;4.90;23.30;;;;;;7388673;19;20023;-80
2023/01/10 03:44:48;;;;;;;6.47;2.30;;;4.90;22.50;;;;;;7381206;19;20100;-80
2023/01/10 03:47:24;;;;;;;5.13;2.60;;;4.80;22.90;;;;;;7382115;19;20077;-80
2023/01/10 03:50:02;;;;;;;5.07;2.30;;;4.80;22.90;;;;;;7383555;19;20029;-80
2023/01/10 03:52:35;;;;;;;4.75;2.60;;;4.80;23.40;;;;;;7387384;19;20010;-81
2023/01/10 03:55:07;;;;;;;5.43;2.47;;;4.80;23.40;;;;;;7379590;19;20012;-81
2023/01/10 03:57:36;;;;;;;5.25;2.78;;;4.80;23.30;;;;;;7381246;19;20010;-81
2023/01/10 04:00:08;;;;;;;4.57;2.65;;;4.80;24.10;;;;;;7382940;19;20021;-80
2023/01/10 04:02:37;;;;;;;4.60;2.40;;;4.70;24.30;;;;;;7383245;19;20010;-80
2023/01/10 04:05:10;;;;;;;5.10;2.85;;;4.70;23.90;;;;;;7380400;19;20651;-80
2023/01/10 04:07:43;;;;;;;4.40;2.40;;;4.70;23.60;;;;;;7381748;19;20078;-80
2023/01/10 04:10:13;;;;;;;3.83;2.50;;;4.60;23.60;;;;;;7381695;19;20474;-79
2023/01/10 04:12:43;;;;;;;5.55;3.00;;;4.60;23.80;;;;;;7386594;19;20021;-81
2023/01/10 04:15:13;;;;;;;8.75;2.92;;;4.60;24.30;;;;;;7380792;19;20466;-80
2023/01/10 04:17:42;;;;;;;6.30;3.60;;;4.50;24.60;;;;;;7381127;19;20033;-81
2023/01/10 04:20:14;;;;;;;6.50;3.33;;;4.50;25.40;;;;;;7383235;19;20030;-80
2023/01/10 04:22:50;;;;;;;5.40;3.30;;;4.60;25.10;;;;;;7384267;19;20018;-80
2023/01/10 04:25:20;;;;;;;5.97;2.58;;;4.60;24.80;;;;;;7378701;19;20386;-80
2023/01/10 04:27:51;;;;;;;4.30;2.90;;;4.60;24.20;;;;;;7380348;19;20485;-80
2023/01/10 04:30:23;;;;;;;4.65;3.05;;;4.60;24.20;;;;;;7382606;19;20467;-80
2023/01/10 04:32:53;;;;;;;4.80;2.63;;;4.50;24.00;;;;;;7383896;19;19998;-79
2023/01/10 04:35:23;;;;;;;6.10;3.28;;;4.40;24.60;;;;;;7381418;19;20006;-80
2023/01/10 04:37:56;;;;;;;7.63;3.20;;;4.40;25.00;;;;;;7378291;19;20027;-80
2023/01/10 04:40:26;;;;;;;6.32;3.22;;;4.40;24.90;;;;;;7383846;19;20035;-80
2023/01/10 04:42:55;;;;;;;6.88;3.45;;;4.40;24.90;;;;;;7383232;19;20013;-80
2023/01/10 04:45:25;;;;;;;4.70;3.30;;;4.40;24.60;;;;;;7380338;19;20065;-80
2023/01/10 04:47:56;;;;;;;6.88;3.40;;;4.50;24.10;;;;;;7380235;19;20498;-80
2023/01/10 04:50:25;;;;;;;9.90;3.42;;;4.60;23.10;;;;;;7372198;19;20096;-80
2023/01/10 04:52:58;;;;;;;8.10;3.20;;;4.60;22.80;;;;;;7354975;19;20006;-80
2023/01/10 04:55:27;;;;;;;8.82;3.40;;;4.60;22.70;;;;;;7352931;19;20011;-81
2023/01/10 04:57:58;;;;;;;10.63;3.58;;;4.60;23.10;;;;;;7352881;19;20073;-82
2023/01/10 05:00:29;;;;;;;8.95;3.88;;;4.60;22.40;;;;;;7355783;19;20007;-80
2023/01/10 05:02:59;;;;;;;10.18;3.58;;;4.60;21.20;;;;;;7353831;19;20010;-81
2023/01/10 05:05:29;;;;;;;9.52;3.90;;;4.60;21.40;;;;;;7351500;19;20025;-82
2023/01/10 05:08:01;;;;;;;12.18;4.45;;;4.60;21.00;;;;;;7373038;19;20466;-81
2023/01/10 05:10:31;;;;;;;10.68;4.80;;;4.70;19.70;;;;;;7356116;19;20086;-81
2023/01/10 05:13:01;;;;;;;10.35;4.03;;;4.70;19.40;;;;;;7355214;19;20511;-81
2023/01/10 05:15:31;;;;;;;10.20;3.95;;;4.70;19.40;;;;;;7350619;19;20891;-81
2023/01/10 05:18:01;;;;;;;13.45;4.13;;;4.80;19.50;;;;;;7351402;19;20482;-81
2023/01/10 05:20:31;;;;;;;14.20;3.60;;;4.70;19.40;;;;;;7354452;19;20018;-81
2023/01/10 05:23:03;;;;;;;14.23;3.40;;;4.80;18.00;;;;;;7376259;19;20006;-81
2023/01/10 05:25:33;;;;;;;13.52;3.85;;;4.80;18.40;;;;;;7350951;19;20014;-81
2023/01/10 05:28:03;;;;;;;12.88;3.72;;;4.80;18.00;;;;;;7351165;19;20549;-81
2023/01/10 05:30:33;;;;;;;9.45;3.30;;;4.80;17.60;;;;;;7354525;19;20006;-80
2023/01/10 05:33:05;;;;;;;15.70;3.45;;;4.80;16.60;;;;;;7354981;19;20085;-81
2023/01/10 05:35:36;;;;;;;12.98;3.42;;;4.80;16.60;;;;;;7350562;19;20025;-82
2023/01/10 05:38:08;;;;;;;13.55;3.30;;;4.90;16.00;;;;;;7371628;19;20015;-81
2023/01/10 05:40:38;;;;;;;15.00;3.60;;;4.90;16.00;;;;;;7355057;19;20014;-82
2023/01/10 05:43:10;;;;;;;14.35;3.20;;;4.90;15.60;;;;;;7355196;19;20022;-81
2023/01/10 05:45:40;;;;;;;12.25;3.00;;;4.90;14.80;;;;;;7349418;19;20629;-80
2023/01/10 05:48:10;;;;;;;11.43;3.63;;;4.90;15.20;;;;;;7354842;19;20482;-82
2023/01/10 05:50:40;;;;;;;22.95;4.82;;;4.90;15.50;;;;;;7363562;19;20014;-82
2023/01/10 05:53:12;;;;;;;17.77;3.38;;;4.90;13.90;;;;;;7387318;19;20380;-83
2023/01/10 05:55:42;;;;;;;12.80;3.38;;;4.90;14.40;;;;;;7383740;19;20511;-82
2023/01/10 05:58:12;;;;;;;13.70;3.22;;;4.90;14.70;;;;;;7391100;19;20010;-83
2023/01/10 06:00:42;;;;;;;18.10;3.95;;;4.90;14.10;;;;;;7390691;19;20601;-83
2023/01/10 06:03:12;;;;;;;13.80;3.22;;;4.90;14.20;;;;;;7390186;19;20046;-80
2023/01/10 06:05:42;;;;;;;12.88;3.45;;;4.90;13.90;;;;;;7385385;19;20010;-82
2023/01/10 06:08:14;;;;;;;9.45;3.08;;;4.90;13.00;;;;;;7387454;19;20010;-81
2023/01/10 06:10:44;;;;;;;11.35;2.50;;;4.90;13.60;;;;;;7391555;19;20022;-83
2023/01/10 06:13:14;;;;;;;12.65;3.97;;;4.90;13.70;;;;;;7387999;19;20031;-81
2023/01/10 06:15:45;;;;;;;12.93;2.65;;;4.90;13.70;;;;;;7383465;19;20018;-81
2023/01/10 06:18:15;;;;;;;11.57;3.10;;;4.80;13.50;;;;;;7389074;19;20011;-82
2023/01/10 06:20:45;;;;;;;15.95;3.10;;;4.80;12.50;;;;;;7390505;19;20537;-82
2023/01/10 06:23:18;;;;;;;9.35;2.75;;;4.90;11.60;;;;;;7386282;19;20015;-80
2023/01/10 06:25:48;;;;;;;12.25;3.15;;;4.90;11.00;;;;;;7382639;19;20031;-83
2023/01/10 06:28:18;;;;;;;7.80;2.50;;;4.90;10.10;;;;;;7390876;19;20014;-83
2023/01/10 06:30:48;;;;;;;10.38;3.10;;;4.80;9.50;;;;;;7389232;19;20074;-82
2023/01/10 06:33:18;;;;;;;11.65;3.17;;;4.80;9.10;;;;;;7388672;19;20011;-82
2023/01/10 06:35:48;;;;;;;11.32;2.92;;;4.80;8.80;;;;;;7381088;19;20154;-83
2023/01/10 06:38:20;;;;;;;12.93;3.33;;;4.80;9.30;;;;;;7388232;19;20015;-83
2023/01/10 06:40:50;;;;;;;10.43;3.28;;;4.80;9.90;;;;;;7391087;19;20010;-83
2023/01/10 06:43:20;;;;;;;10.02;2.83;;;4.80;8.40;;;;;;7386853;19;20487;-83
2023/01/10 06:45:50;;;;;;;11.02;2.65;;;4.80;7.70;;;;;;7378713;19;20021;-83
2023/01/10 06:48:22;;;;;;;12.98;2.83;;;4.80;7.80;;;;;;7390536;19;20015;-82
2023/01/10 06:50:55;;;;;;;14.45;2.72;;;4.80;8.00;;;;;;7388202;19;20038;-82
2023/01/10 06:53:28;;;;;;;14.88;2.95;;;4.80;6.90;;;;;;7388660;19;20025;-82
2023/01/10 06:55:58;;;;;;;10.35;2.40;;;4.80;8.00;;;;;;7377501;19;20044;-82
2023/01/10 06:58:30;;;;;;;8.93;2.70;;;4.80;7.20;;;;;;7389650;19;20022;-82
2023/01/10 07:01:00;;;;;;;12.35;3.03;;;4.80;7.60;;;;;;7387007;19;20023;-82
2023/01/10 07:03:30;;;;;;;9.13;2.63;;;4.90;7.80;;;;;;7392596;19;20077;-82
2023/01/10 07:06:04;;;;;;;13.57;2.78;;;4.90;7.50;;;;;;7388578;19;20022;-84
2023/01/10 07:08:39;;;;;;;;;;;4.90;7.90;;;;;;7393473;19;20149;-82
2023/01/10 07:11:11;;;;;;;10.63;2.50;;;4.90;8.60;;;;;;7392431;19;20324;-82
2023/01/10 07:13:41;;;;;;;8.48;2.70;;;4.90;8.60;;;;;;7394413;19;20014;-84
2023/01/10 07:16:13;;;;;;;9.20;2.88;;;4.90;9.50;;;;;;7388636;19;20022;-84
2023/01/10 07:18:44;;;;;;;12.32;2.58;;;4.90;9.00;;;;;;7394222;19;20034;-81
2023/01/10 07:21:15;;;;;;;10.98;2.63;;;4.90;9.90;;;;;;7394414;19;20019;-83
2023/01/10 07:23:50;;;;;;;14.23;3.78;;;4.90;9.70;;;;;;7393408;19;20022;-83
2023/01/10 07:26:23;;;;;;;12.30;3.42;;;4.90;9.60;;;;;;7392129;19;21330;-82
2023/01/10 07:28:53;;;;;;;13.25;3.88;;;4.90;9.90;;;;;;7391066;19;20022;-84
2023/01/10 07:31:24;;;;;;;13.00;3.25;;;5.00;10.10;;;;;;7394294;19;20748;-82
2023/01/10 07:33:54;;;;;;;16.38;3.28;;;5.00;9.70;;;;;;7393594;19;20478;-85
2023/01/10 07:36:24;;;;;;;12.60;3.50;;;5.00;9.90;;;;;;7389615;19;20017;-83
2023/01/10 07:38:56;;;;;;;13.60;3.33;;;5.00;9.70;;;;;;7392484;19;20087;-83
2023/01/10 07:41:30;;;;;;;12.30;2.95;;;5.00;9.90;;;;;;7391833;19;20014;-84
2023/01/10 07:44:00;;;;;;;10.35;2.67;;;5.10;10.20;;;;;;7390612;19;20813;-82
2023/01/10 07:46:30;;;;;;;11.30;3.28;;;5.10;9.70;;;;;;7310930;19;20371;-83
2023/01/10 07:49:00;;;;;;;15.27;3.35;;;5.10;9.50;;;;;;7386733;19;20053;-84
2023/01/10 07:51:29;;;;;;;12.77;2.95;;;5.10;9.20;;;;;;7389950;19;20006;-84
2023/01/10 07:54:05;;;;;;;15.57;3.50;;;5.10;9.30;;;;;;7362042;19;20463;-83
2023/01/10 07:56:36;;;;;;;12.70;3.00;;;5.20;9.20;;;;;;7361552;19;20014;-83
2023/01/10 07:59:06;;;;;;;9.40;3.17;;;5.20;9.10;;;;;;7362425;19;20010;-83
2023/01/10 08:01:36;;;;;;;12.10;3.30;;;5.20;9.10;;;;;;7364208;19;20010;-83
2023/01/10 08:04:06;;;;;;;14.55;3.33;;;5.20;9.10;;;;;;7361168;19;20522;-82
2023/01/10 08:06:36;;;;;;;11.45;3.13;;;5.20;9.20;;;;;;7385484;19;20039;-82
2023/01/10 08:09:12;;;;;;;18.05;3.40;;;5.10;9.10;;;;;;7362064;19;20007;-83
2023/01/10 08:11:42;;;;;;;14.85;3.03;;;5.20;10.20;;;;;;7363947;19;20112;-82
2023/01/10 08:14:12;;;;;;;12.75;4.07;;;5.20;9.30;;;;;;7360480;19;20016;-83
2023/01/10 08:16:42;;;;;;;14.63;3.40;;;5.20;10.10;;;;;;7361164;19;20114;-83
2023/01/10 08:19:15;;;;;;;18.77;4.20;;;5.20;9.70;;;;;;7365020;19;20010;-83
2023/01/10 08:21:45;;;;;;;10.68;3.53;;;5.20;9.20;;;;;;7365183;19;20011;-83
2023/01/10 08:24:18;;;;;;;15.55;3.70;;;5.20;9.70;;;;;;7382289;19;20014;-84
2023/01/10 08:26:48;;;;;;;12.35;3.65;;;5.30;9.80;;;;;;7361976;19;20018;-84
2023/01/10 08:29:18;;;;;;;15.98;3.83;;;5.30;9.20;;;;;;7363551;19;20466;-83
2023/01/10 08:31:48;;;;;;;10.65;3.50;;;5.40;9.90;;;;;;7364149;19;20023;-84
2023/01/10 08:34:18;;;;;;;15.57;3.78;;;5.30;9.20;;;;;;7361388;19;20012;-84
2023/01/10 08:36:52;;;;;;;15.70;3.78;;;5.40;9.30;;;;;;7364771;19;20018;-82
2023/01/10 08:39:25;;;;;;;12.67;3.57;;;5.40;9.20;;;;;;7386066;19;20015;-84
2023/01/10 08:41:55;;;;;;;16.60;4.30;;;5.40;8.50;;;;;;7364741;19;20829;-83
2023/01/10 08:44:25;;;;;;;16.15;3.67;;;5.40;9.20;;;;;;7357528;19;20044;-82
2023/01/10 08:46:55;;;;;;;11.38;3.67;;;5.40;8.40;;;;;;7359501;19;20015;-83
2023/01/10 08:49:25;;;;;;;18.42;3.60;;;5.50;8.70;;;;;;7389415;19;20024;-84
2023/01/10 08:51:55;;;;;;;14.70;3.92;;;5.50;8.30;;;;;;7392712;19;20035;-83
2023/01/10 08:54:28;;;;;;;12.55;4.28;;;5.50;8.30;;;;;;7387041;19;20112;-82
2023/01/10 08:56:58;;;;;;;8.70;3.05;;;5.60;8.50;;;;;;7387297;19;20018;-83
2023/01/10 08:59:27;;;;;;;7.97;3.10;;;5.60;5.80;;;;;;7390025;19;20022;-83
2023/01/10 09:01:58;;;;;;;22.55;4.15;;;5.50;6.90;;;;;;7391949;19;20003;-83
2023/01/10 09:04:29;;;;;;;14.82;3.53;;;5.60;7.40;;;;;;7383384;19;20027;-82
2023/01/10 09:07:01;;;;;;;12.38;4.10;;;5.70;7.70;;;;;;7389278;19;20034;-82
2023/01/10 09:09:34;;;;;;;17.15;3.70;;;5.60;6.90;;;;;;7389712;19;20026;-83
2023/01/10 09:12:53;;;;;;;8.85;3.40;;;5.70;6.70;;;;;;7389979;19;20006;-84
2023/01/10 09:14:53;;;;;;;8.63;3.30;;;5.70;7.10;;;;;;7386284;19;20010;-82
2023/01/10 09:17:23;;;;;;;16.98;3.28;;;5.70;6.50;;;;;;7386002;19;20018;-83
2023/01/10 09:19:54;;;;;;;14.85;3.45;;;5.80;6.70;;;;;;7387578;19;20011;-81
2023/01/10 09:22:24;;;;;;;11.27;3.63;;;5.80;5.80;;;;;;7389089;19;20026;-83
2023/01/10 09:24:57;;;;;;;8.82;3.38;;;5.90;5.90;;;;;;7383241;19;20014;-83
2023/01/10 09:27:27;;;;;;;16.52;3.78;;;5.90;5.90;;;;;;7386321;19;20014;-82
2023/01/10 09:29:57;;;;;;;12.77;3.85;;;5.90;4.80;;;;;;7385677;19;20017;-83
2023/01/10 09:32:27;;;;;;;13.13;3.75;;;5.90;4.20;;;;;;7388384;19;20034;-84
2023/01/10 09:34:59;;;;;;;9.93;3.20;;;5.80;4.40;;;;;;7382665;19;20015;-83
2023/01/10 09:37:29;;;;;;;8.85;3.47;;;5.90;4.50;;;;;;7387213;19;20087;-82
2023/01/10 09:40:02;;;;;;;12.48;3.67;;;6.00;4.50;;;;;;7388384;19;20014;-82
2023/01/10 09:42:52;;;;;;;12.00;3.30;;;6.00;2.30;;;;;;7389618;19;20081;-83
2023/01/10 09:45:29;;;;;;;16.35;6.55;;;6.00;3.10;;;;;;7385122;19;20082;-84
2023/01/10 09:48:05;;;;;;;14.32;3.75;;;6.10;3.00;;;;;;7385449;19;20025;-83
2023/01/10 09:50:45;;;;;;;10.52;3.28;;;6.00;2.20;;;;;;7384661;19;20021;-83
2023/01/10 09:53:20;;;;;;;12.07;3.38;;;6.00;2.20;;;;;;7387324;19;20023;-83
2023/01/10 09:55:56;;;;;;;11.40;3.10;;;6.00;2.10;;;;;;7381858;19;20011;-82
2023/01/10 09:58:29;;;;;;;11.55;2.90;;;6.00;1.00;;;;;;7384980;19;20018;-83
2023/01/10 10:01:01;;;;;;;10.88;2.70;;;6.10;1.00;;;;;;7387476;19;20015;-81
2023/01/10 10:03:38;;;;;;;5.82;2.15;;;6.00;1.00;;;;;;7388408;19;20094;-82
2023/01/10 10:06:12;;;;;;;9.68;2.72;;;6.10;1.00;;;;;;7378986;19;20022;-80
2023/01/10 10:08:43;;;;;;;9.50;2.63;;;6.20;1.00;;;;;;7386849;19;20150;-81
2023/01/10 10:11:34;;;;;;;8.50;2.70;;;6.20;1.00;;;;;;7387760;19;20011;-81
2023/01/10 10:14:10;;;;;;;7.45;2.50;;;6.30;1.00;;;;;;7384097;19;20625;-82
2023/01/10 10:17:05;;;;;;;9.02;2.95;;;6.30;1.00;;;;;;7383522;19;20014;-81
2023/01/10 10:19:54;;;;;;;8.52;2.83;;;6.30;1.00;;;;;;7385447;19;20079;-80
2023/01/10 10:22:33;;;;;;;10.95;2.72;;;6.40;1.00;;;;;;7387566;19;20027;-81
2023/01/10 10:25:14;;;;;;;9.55;2.70;;;6.40;1.00;;;;;;7382733;19;20020;-81
2023/01/10 10:28:12;;;;;;;12.40;2.70;;;6.40;1.00;;;;;;7385503;19;20015;-80
2023/01/10 10:30:51;;;;;;;4.32;1.73;;;6.50;1.00;;;;;;7388038;19;20072;-80
2023/01/10 10:33:33;;;;;;;4.70;2.20;;;6.50;1.00;;;;;;7387689;19;20019;-81
2023/01/10 10:36:07;;;;;;;9.93;1.98;;;6.50;1.00;;;;;;7383959;19;20027;-81
2023/01/10 10:38:42;;;;;;;6.72;2.97;;;6.60;1.00;;;;;;7393533;19;20017;-83
2023/01/10 10:41:19;;;;;;;6.43;2.22;;;6.60;1.00;;;;;;7393300;19;20104;-81
2023/01/10 10:43:52;;;;;;;9.55;2.40;;;6.60;1.00;;;;;;7394914;19;20010;-82
2023/01/10 10:46:23;;;;;;;7.03;2.40;;;6.70;1.00;;;;;;7384271;19;20006;-81
2023/01/10 10:48:59;;;;;;;8.27;2.40;;;6.60;1.00;;;;;;7392283;19;20279;-82
2023/01/10 10:51:35;;;;;;;9.98;2.10;;;6.60;1.00;;;;;;7394295;19;20032;-82
2023/01/10 10:54:06;;;;;;;5.97;1.98;;;6.70;1.00;;;;;;7389486;19;20090;-83
2023/01/10 10:56:37;;;;;;;9.48;2.40;;;6.70;1.00;;;;;;7391798;19;20017;-82
2023/01/10 10:59:10;;;;;;;9.95;2.25;;;6.90;1.00;;;;;;7393271;19;20074;-82
2023/01/10 11:01:42;;;;;;;9.52;2.03;;;6.90;1.00;;;;;;7395295;19;20025;-81
2023/01/10 11:04:15;;;;;;;5.55;2.17;;;6.90;1.00;;;;;;7387713;19;20011;-82
2023/01/10 11:06:48;;;;;;;4.65;1.67;;;7.00;1.00;;;;;;7389508;19;20011;-84
2023/01/10 11:09:21;;;;;;;11.43;2.40;;;7.00;1.00;;;;;;7392501;19;20021;-82
2023/01/10 11:11:53;;;;;;;12.43;5.03;;;7.00;1.00;;;;;;7393541;19;20035;-83
2023/01/10 11:14:47;;;;;;;7.93;2.10;;;7.10;1.00;;;;;;7390237;19;20003;-82
2023/01/10 11:17:24;;;;;;;9.10;2.25;;;7.10;1.00;;;;;;7388200;19;20729;-83
2023/01/10 11:20:01;;;;;;;6.00;2.13;;;7.00;1.00;;;;;;7389347;19;20021;-83
2023/01/10 11:22:40;;;;;;;8.32;2.55;;;6.90;1.00;;;;;;7394423;19;20622;-82
2023/01/10 11:25:17;;;;;;;7.18;1.70;;;7.00;1.00;;;;;;7387070;19;20017;-82
2023/01/10 11:27:51;;;;;;;8.25;2.25;;;7.10;1.00;;;;;;7388293;19;20986;-82
2023/01/10 11:30:26;;;;;;;6.10;2.17;;;7.20;1.00;;;;;;7389312;19;20014;-82
2023/01/10 11:32:59;;;;;;;4.90;1.80;;;7.10;1.00;;;;;;7393242;19;20007;-83
2023/01/10 11:35:32;;;;;;;7.90;2.27;;;7.00;1.00;;;;;;7384928;19;20621;-81
2023/01/10 11:38:04;;;;;;;9.50;3.00;;;6.90;1.00;;;;;;7389607;19;20344;-83
2023/01/10 11:40:36;;;;;;;5.03;1.83;;;7.00;1.00;;;;;;7307837;19;20125;-82
2023/01/10 11:43:29;;;;;;;5.05;1.73;;;6.90;1.00;;;;;;7362298;19;20470;-83
2023/01/10 11:46:04;;;;;;;6.18;1.65;;;6.80;1.00;;;;;;7366413;19;20034;-81
2023/01/10 11:48:46;;;;;;;7.53;1.90;;;6.90;1.00;;;;;;7383305;19;20478;-83
2023/01/10 11:51:37;;;;;;;10.38;2.83;;;6.90;1.00;;;;;;7363055;19;20011;-81
2023/01/10 11:54:12;;;;;;;6.70;1.77;;;6.90;1.00;;;;;;7360433;19;20011;-82
2023/01/10 11:56:42;;;;;;;12.68;3.03;;;6.90;1.00;;;;;;7358980;19;20014;-82
2023/01/10 11:59:16;;;;;;;5.53;2.10;;;7.00;1.00;;;;;;7362567;19;20016;-81
2023/01/10 12:01:56;;;;;;;8.52;2.17;;;6.90;1.00;;;;;;7364986;19;20013;-82
2023/01/10 12:04:30;;;;;;;6.20;1.33;;;7.10;1.00;;;;;;7360144;19;20010;-82
2023/01/10 12:07:04;;;;;;;5.07;1.80;;;7.20;1.00;;;;;;7359737;19;20015;-81
2023/01/10 12:09:41;;;;;;;8.10;2.83;;;7.20;1.00;;;;;;7382958;19;20011;-81
2023/01/10 12:12:33;;;;;;;6.95;2.25;;;7.20;1.00;;;;;;7361698;19;20014;-80
2023/01/10 12:15:24;;;;;;;5.53;2.53;;;7.30;1.00;;;;;;7358175;19;20010;-81
2023/01/10 12:17:59;;;;;;;8.68;1.63;;;7.40;1.00;;;;;;7360213;19;20013;-81
2023/01/10 12:20:31;;;;;;;5.90;1.77;;;7.40;1.00;;;;;;7360597;19;20013;-81
2023/01/10 12:23:06;;;;;;;7.40;1.48;;;7.40;1.00;;;;;;7363251;19;20022;-81
2023/01/10 12:25:39;;;;;;;11.88;2.58;;;7.70;1.00;;;;;;7356557;19;20015;-80
2023/01/10 12:28:18;;;;;;;4.30;1.40;;;7.70;1.00;;;;;;7357299;19;20010;-81
2023/01/10 12:30:51;;;;;;;7.60;2.20;;;7.70;1.00;;;;;;7384132;19;20025;-81
2023/01/10 12:33:27;;;;;;;28.15;15.55;;;7.60;1.00;;;;;;7361662;19;20014;-80
2023/01/10 12:36:07;;;;;;;8.00;1.35;;;7.70;1.00;;;;;;7354350;19;20010;-82
2023/01/10 12:44:17;;;;;;;3.38;1.45;;;7.70;1.00;;;;;;7387472;19;20014;-81
2023/01/10 12:46:50;;;;;;;6.90;1.75;;;7.60;1.00;;;;;;7386354;19;20082;-82
2023/01/10 12:49:48;;;;;;;8.63;1.65;;;7.70;1.00;;;;;;7383251;19;20040;-80
2023/01/10 12:52:23;;;;;;;8.55;1.70;;;7.70;1.00;;;;;;7391099;19;20049;-80
2023/01/10 12:54:56;;;;;;;6.75;1.50;;;7.60;1.00;;;;;;7383980;19;20022;-80
2023/01/10 12:57:31;;;;;;;7.07;1.60;;;7.60;1.00;;;;;;7381607;19;20011;-82
2023/01/10 13:00:04;;;;;;;5.70;1.90;;;7.70;1.00;;;;;;7384721;19;20014;-81
2023/01/10 13:02:44;;;;;;;5.87;1.53;;;7.60;1.00;;;;;;7389452;19;20022;-83
2023/01/10 13:05:22;;;;;;;7.47;2.13;;;7.70;1.00;;;;;;7381072;19;20030;-84
2023/01/10 13:07:56;;;;;;;8.30;1.80;;;7.50;1.00;;;;;;7385057;19;20102;-80
2023/01/10 13:10:32;;;;;;;7.85;1.65;;;7.50;1.00;;;;;;7386631;19;20018;-81
2023/01/10 13:13:07;;;;;;;6.40;1.30;;;7.60;1.00;;;;;;7386151;19;20018;-81
2023/01/10 13:15:43;;;;;;;6.20;1.55;;;7.60;1.00;;;;;;7381900;19;20014;-81
2023/01/10 13:18:21;;;;;;;7.80;1.77;;;7.60;1.00;;;;;;7387664;19;21201;-83
2023/01/10 13:21:07;;;;;;;9.13;3.30;;;7.70;1.00;;;;;;7385820;19;20021;-81
2023/01/10 13:23:41;;;;;;;10.43;2.10;;;7.90;1.00;;;;;;7386695;19;20470;-82
2023/01/10 13:26:11;;;;;;;6.15;1.60;;;7.80;1.00;;;;;;7382468;19;20014;-82
2023/01/10 13:28:52;;;;;;;7.75;1.77;;;7.70;1.00;;;;;;7383992;19;20467;-83
2023/01/10 13:31:27;;;;;;;4.32;1.52;;;7.70;1.00;;;;;;7386031;19;20447;-82
2023/01/10 13:34:00;;;;;;;8.90;1.75;;;7.60;1.00;;;;;;7387604;19;20527;-81
2023/01/10 13:36:39;;;;;;;4.13;1.43;;;7.70;1.00;;;;;;7382877;19;20014;-80
2023/01/10 13:39:23;;;;;;;9.32;1.40;;;7.70;1.00;;;;;;7387162;19;20271;-80
2023/01/10 13:45:20;;;;;;;4.63;1.10;;;7.70;1.00;;;;;;7384059;19;20428;-81
2023/01/10 13:48:05;;;;;;;6.88;2.00;;;7.70;1.00;;;;;;7384387;19;20017;-80
2023/01/10 13:50:50;;;;;;;;;;;7.70;1.00;;;;;;7384765;19;20373;-82